Time;durP1;ratioP1;P1;durP2;ratioP2;P2;SDS_P1;SDS_P2;PMS_P1;PMS_P2;Temp;Humidity;BMP_temperature;BMP_pressure;BME280_temperature;BME280_humidity;BME280_pressure;Samples;Min_cycle;Max_cycle;Signal;HPM_P1;HPM_P2
2022/05/08 00:00:25;;;;;;;4.07;2.83;;;18.80;58.30;;;;;;4938039;29;20392;-81
2022/05/08 00:02:54;;;;;;;3.53;2.47;;;18.80;58.30;;;;;;4938258;29;20042;-77
2022/05/08 00:05:20;;;;;;;4.53;2.70;;;18.80;58.40;;;;;;4938609;29;20086;-82
2022/05/08 00:07:45;;;;;;;3.70;3.03;;;18.80;58.40;;;;;;4953991;29;20039;-77
2022/05/08 00:10:11;;;;;;;5.15;2.70;;;18.80;58.40;;;;;;4922389;29;20120;-77
2022/05/08 00:12:37;;;;;;;4.22;2.75;;;18.70;58.40;;;;;;4954071;29;20035;-79
2022/05/08 00:15:05;;;;;;;4.35;2.50;;;18.70;58.50;;;;;;4954002;29;20032;-77
2022/05/08 00:17:34;;;;;;;3.70;2.72;;;18.60;58.40;;;;;;4937877;29;20039;-76
2022/05/08 00:20:02;;;;;;;4.35;3.00;;;18.60;58.40;;;;;;4954107;29;20086;-79
2022/05/08 00:22:28;;;;;;;4.32;3.00;;;18.60;58.40;;;;;;4939336;29;20024;-80
2022/05/08 00:24:54;;;;;;;4.03;2.78;;;18.50;58.40;;;;;;4941291;29;20027;-78
2022/05/08 00:27:20;;;;;;;2.97;2.40;;;18.50;58.40;;;;;;4941424;29;20070;-77
2022/05/08 00:29:45;;;;;;;3.80;2.95;;;18.50;58.40;;;;;;4941870;29;20070;-78
2022/05/08 00:32:11;;;;;;;3.40;2.67;;;18.50;58.40;;;;;;4942283;29;20135;-79
2022/05/08 00:34:38;;;;;;;3.65;2.70;;;18.40;58.40;;;;;;4925687;29;20035;-78
2022/05/08 00:37:05;;;;;;;4.32;3.05;;;18.40;58.50;;;;;;4958633;29;20114;-79
2022/05/08 00:39:32;;;;;;;4.63;3.00;;;18.40;58.50;;;;;;4925854;29;20522;-80
2022/05/08 00:42:01;;;;;;;3.55;2.92;;;18.40;58.50;;;;;;4941298;29;20042;-78
2022/05/08 00:44:26;;;;;;;4.45;3.15;;;18.30;58.50;;;;;;4941616;29;20043;-79
2022/05/08 00:46:52;;;;;;;3.67;2.83;;;18.30;58.50;;;;;;4942116;29;20122;-79
2022/05/08 00:49:18;;;;;;;4.10;2.88;;;18.30;58.50;;;;;;4941874;29;20516;-79
2022/05/08 00:51:47;;;;;;;3.50;2.90;;;18.20;58.40;;;;;;4925109;29;20111;-78
2022/05/08 00:54:13;;;;;;;3.88;2.70;;;18.20;58.50;;;;;;4941382;29;20035;-81
2022/05/08 00:56:40;;;;;;;4.07;3.05;;;18.20;58.50;;;;;;4941036;29;20499;-79
2022/05/08 00:59:06;;;;;;;5.00;3.38;;;18.20;58.50;;;;;;4941063;29;20047;-79
2022/05/08 01:01:31;;;;;;;4.65;3.13;;;18.10;58.50;;;;;;4956851;29;20483;-78
2022/05/08 01:03:57;;;;;;;5.32;3.33;;;18.10;58.50;;;;;;4940896;29;20428;-78
2022/05/08 01:06:23;;;;;;;4.32;3.22;;;18.10;58.50;;;;;;4940856;29;20042;-78
2022/05/08 01:08:50;;;;;;;3.90;2.90;;;18.00;58.50;;;;;;4941395;29;20042;-78
2022/05/08 01:11:17;;;;;;;5.13;3.17;;;18.00;58.60;;;;;;4956340;29;20543;-80
2022/05/08 01:13:44;;;;;;;3.35;2.63;;;18.00;58.60;;;;;;4956909;29;20051;-79
2022/05/08 01:16:18;;;;;;;4.55;3.28;;;18.00;58.60;;;;;;4940995;29;20055;-78
2022/05/08 01:18:45;;;;;;;4.28;3.05;;;17.90;58.60;;;;;;4957214;29;20213;-79
2022/05/08 01:21:15;;;;;;;4.38;2.90;;;17.90;58.60;;;;;;4956401;29;20035;-78
2022/05/08 01:23:41;;;;;;;4.40;2.65;;;17.90;58.60;;;;;;4956739;29;20478;-79
2022/05/08 01:26:07;;;;;;;6.60;3.33;;;17.80;58.60;;;;;;4940130;29;20058;-79
2022/05/08 01:28:33;;;;;;;4.00;2.92;;;17.80;58.60;;;;;;4956493;29;20082;-78
2022/05/08 01:30:59;;;;;;;4.90;3.17;;;17.80;58.60;;;;;;4956145;29;20051;-77
2022/05/08 01:33:26;;;;;;;4.82;3.05;;;17.80;58.60;;;;;;4940032;29;20046;-78
2022/05/08 01:35:52;;;;;;;5.47;3.03;;;17.70;58.60;;;;;;4955936;29;20038;-78
2022/05/08 01:38:22;;;;;;;4.07;2.88;;;17.70;58.60;;;;;;4940738;29;20046;-79
2022/05/08 01:40:48;;;;;;;3.83;2.70;;;17.70;58.60;;;;;;4956704;29;20535;-80
2022/05/08 01:43:15;;;;;;;4.28;2.88;;;17.60;58.60;;;;;;4941245;29;20036;-80
2022/05/08 01:45:41;;;;;;;5.32;2.80;;;17.60;58.60;;;;;;4956166;29;20031;-82
2022/05/08 01:48:23;;;;;;;4.90;2.80;;;17.60;58.60;;;;;;4940049;29;20030;-77
2022/05/08 01:50:50;;;;;;;3.97;2.70;;;17.60;58.60;;;;;;4957150;29;20046;-79
2022/05/08 01:53:18;;;;;;;4.65;2.70;;;17.50;58.60;;;;;;4956165;29;20031;-80
2022/05/08 01:55:44;;;;;;;5.22;2.90;;;17.50;58.60;;;;;;4957736;28;20043;-79
2022/05/08 01:58:10;;;;;;;4.78;2.65;;;17.50;58.60;;;;;;4940275;29;20027;-76
2022/05/08 02:00:36;;;;;;;4.47;2.38;;;17.40;58.60;;;;;;4940018;29;20511;-80
2022/05/08 02:03:03;;;;;;;6.15;3.00;;;17.40;58.60;;;;;;4939928;29;20057;-78
2022/05/08 02:05:31;;;;;;;5.05;2.45;;;17.40;58.70;;;;;;4955595;29;20027;-79
2022/05/08 02:07:59;;;;;;;6.72;3.00;;;17.30;58.60;;;;;;4956263;29;20479;-81
2022/05/08 02:10:25;;;;;;;4.10;2.58;;;17.30;58.60;;;;;;4939744;29;20036;-78
2022/05/08 02:12:51;;;;;;;4.40;2.30;;;17.30;58.60;;;;;;4939802;29;20023;-78
2022/05/08 02:15:21;;;;;;;3.90;2.50;;;17.30;58.70;;;;;;4940506;29;20086;-78
2022/05/08 02:17:47;;;;;;;4.50;2.47;;;17.30;58.70;;;;;;4955326;29;20392;-77
2022/05/08 02:20:13;;;;;;;4.00;2.22;;;17.20;58.60;;;;;;4955089;29;20039;-77
2022/05/08 02:22:39;;;;;;;5.38;2.60;;;17.20;58.60;;;;;;4955815;29;20470;-83
2022/05/08 02:25:06;;;;;;;4.47;2.08;;;17.20;58.70;;;;;;4939276;29;20361;-78
2022/05/08 02:27:40;;;;;;;3.85;2.28;;;17.20;58.70;;;;;;4956705;28;20111;-78
2022/05/08 02:30:10;;;;;;;4.50;2.45;;;17.10;59.30;;;;;;4939737;29;20038;-80
2022/05/08 02:32:38;;;;;;;5.32;2.33;;;17.10;58.70;;;;;;4939937;29;20119;-78
2022/05/08 02:35:06;;;;;;;3.95;2.20;;;17.10;58.70;;;;;;4938779;29;20035;-78
2022/05/08 02:37:33;;;;;;;4.53;2.30;;;17.10;58.70;;;;;;4955240;29;20038;-80
2022/05/08 02:39:59;;;;;;;4.18;2.05;;;17.00;58.70;;;;;;4939145;29;20036;-77
2022/05/08 02:42:26;;;;;;;5.97;2.40;;;17.00;58.70;;;;;;4955003;29;20034;-78
2022/05/08 02:44:51;;;;;;;3.70;1.90;;;17.00;58.70;;;;;;4938614;29;20039;-80
2022/05/08 02:47:17;;;;;;;4.30;2.10;;;17.00;58.70;;;;;;4922975;29;20038;-78
2022/05/08 02:49:43;;;;;;;4.07;2.15;;;16.90;58.70;;;;;;4955333;29;20059;-78
2022/05/08 02:52:09;;;;;;;5.13;1.90;;;16.90;58.70;;;;;;4954923;29;20039;-81
2022/05/08 02:54:34;;;;;;;4.25;2.33;;;16.90;58.70;;;;;;4954237;29;20039;-79
2022/05/08 02:59:44;;;;;;;3.58;2.00;;;16.80;58.70;;;;;;4956258;29;20123;-78
2022/05/08 03:02:10;;;;;;;3.40;1.92;;;16.80;58.70;;;;;;4923336;29;20470;-77
2022/05/08 03:04:36;;;;;;;4.95;1.85;;;16.80;58.70;;;;;;4938292;29;20039;-77
2022/05/08 03:07:02;;;;;;;3.97;2.20;;;16.70;58.70;;;;;;4938695;29;20027;-79
2022/05/08 03:09:28;;;;;;;4.30;2.35;;;16.80;58.80;;;;;;4954242;29;20519;-77
2022/05/08 03:11:54;;;;;;;3.72;1.88;;;16.70;58.80;;;;;;4938291;29;20031;-77
2022/05/08 03:14:24;;;;;;;6.13;2.13;;;16.70;58.80;;;;;;4906922;29;20035;-77
2022/05/08 03:16:50;;;;;;;4.20;1.83;;;16.60;58.80;;;;;;4955786;28;20043;-79
2022/05/08 03:19:17;;;;;;;3.65;1.80;;;16.60;58.70;;;;;;4922893;29;20029;-79
2022/05/08 03:21:43;;;;;;;3.75;1.90;;;16.60;58.80;;;;;;4938443;29;20035;-78
2022/05/08 03:24:09;;;;;;;3.92;2.20;;;16.60;58.80;;;;;;4953991;29;20028;-78
2022/05/08 03:26:36;;;;;;;4.38;1.95;;;16.50;58.80;;;;;;4938315;29;20055;-78
2022/05/08 03:29:03;;;;;;;4.93;2.13;;;16.50;58.80;;;;;;4939214;29;20464;-79
2022/05/08 03:31:28;;;;;;;3.53;1.90;;;16.50;58.80;;;;;;4938476;29;20062;-80
2022/05/08 03:33:55;;;;;;;4.35;2.17;;;16.50;58.80;;;;;;4938768;29;20019;-79
2022/05/08 03:36:21;;;;;;;5.25;2.05;;;16.40;58.80;;;;;;4954228;29;20039;-80
2022/05/08 03:38:47;;;;;;;5.15;2.13;;;16.40;58.80;;;;;;4938098;29;20042;-78
2022/05/08 03:41:17;;;;;;;5.18;2.10;;;16.40;58.80;;;;;;4955098;28;20031;-79
2022/05/08 03:43:44;;;;;;;5.70;2.10;;;16.40;58.80;;;;;;4955225;28;20465;-78
2022/05/08 03:46:10;;;;;;;3.30;1.70;;;16.40;58.80;;;;;;4938407;29;20496;-77
2022/05/08 03:48:36;;;;;;;3.35;1.80;;;16.30;58.80;;;;;;4938715;29;20074;-79
2022/05/08 03:51:03;;;;;;;4.07;1.90;;;16.30;58.80;;;;;;4906517;29;20079;-78
2022/05/08 03:53:29;;;;;;;3.28;1.65;;;16.30;58.90;;;;;;4938241;29;20034;-79
2022/05/08 03:55:55;;;;;;;2.92;1.73;;;16.20;58.90;;;;;;4938028;29;20454;-80
2022/05/08 03:58:21;;;;;;;3.78;2.08;;;16.20;58.90;;;;;;4956712;28;20043;-79
2022/05/08 04:00:46;;;;;;;4.60;2.45;;;16.20;58.90;;;;;;4957675;29;20039;-78
2022/05/08 04:03:12;;;;;;;3.45;1.77;;;16.20;58.90;;;;;;4958045;29;20375;-79
2022/05/08 04:05:38;;;;;;;4.03;1.92;;;16.10;58.80;;;;;;4958837;29;20421;-80
2022/05/08 04:08:04;;;;;;;5.25;1.92;;;16.10;58.90;;;;;;4942290;29;20122;-76
2022/05/08 04:10:30;;;;;;;3.47;1.70;;;16.10;58.90;;;;;;4925616;29;20031;-77
2022/05/08 04:12:55;;;;;;;4.30;1.80;;;16.10;58.90;;;;;;4942413;29;20038;-78
2022/05/08 04:18:07;;;;;;;3.90;2.15;;;16.00;58.90;;;;;;4944225;29;20055;-81
2022/05/08 04:20:33;;;;;;;5.88;2.20;;;16.00;58.90;;;;;;4957543;29;20102;-80
2022/05/08 04:25:43;;;;;;;3.75;1.58;;;16.00;59.00;;;;;;4944701;29;20039;-80
2022/05/08 04:28:09;;;;;;;3.50;1.52;;;15.90;59.00;;;;;;4958106;29;20047;-78
2022/05/08 04:30:36;;;;;;;3.33;1.63;;;15.90;59.00;;;;;;4958065;29;20094;-77
2022/05/08 04:33:03;;;;;;;4.13;1.90;;;15.90;59.00;;;;;;4941422;29;20027;-81
2022/05/08 04:35:28;;;;;;;4.32;1.90;;;15.80;59.00;;;;;;4941674;29;20070;-77
2022/05/08 04:37:54;;;;;;;5.10;1.90;;;15.80;59.00;;;;;;4926234;29;20143;-87
2022/05/08 04:40:20;;;;;;;3.15;1.60;;;15.80;59.00;;;;;;4941551;29;20035;-78
2022/05/08 04:42:46;;;;;;;4.55;2.13;;;15.80;59.00;;;;;;4941779;29;20031;-78
2022/05/08 04:45:11;;;;;;;4.65;1.95;;;15.80;59.00;;;;;;4941202;29;20047;-82
2022/05/08 04:47:37;;;;;;;3.90;1.60;;;15.70;59.00;;;;;;4941683;29;20027;-77
2022/05/08 04:50:03;;;;;;;3.55;1.80;;;15.70;59.00;;;;;;4941014;29;20031;-80
2022/05/08 04:52:29;;;;;;;3.50;1.70;;;15.70;59.00;;;;;;4941927;29;20073;-78
2022/05/08 04:54:55;;;;;;;4.70;1.80;;;15.60;59.10;;;;;;4925462;29;20047;-77
2022/05/08 04:57:20;;;;;;;3.05;1.50;;;15.60;59.00;;;;;;4958168;29;20035;-77
2022/05/08 04:59:46;;;;;;;4.22;1.98;;;15.60;59.10;;;;;;4957890;29;20038;-77
2022/05/08 05:02:12;;;;;;;3.88;2.15;;;15.60;59.10;;;;;;4941877;29;20029;-77
2022/05/08 05:04:39;;;;;;;4.07;1.90;;;15.50;59.10;;;;;;4941152;29;20044;-78
2022/05/08 05:07:04;;;;;;;4.63;2.05;;;15.50;59.10;;;;;;4956612;29;20026;-80
2022/05/08 05:09:30;;;;;;;3.47;1.60;;;15.50;59.10;;;;;;4923552;29;20035;-81
2022/05/08 05:11:56;;;;;;;4.68;1.92;;;15.50;59.20;;;;;;4956587;29;20031;-77
2022/05/08 05:14:22;;;;;;;2.97;1.80;;;15.40;59.10;;;;;;4924963;29;20152;-77
2022/05/08 05:16:48;;;;;;;4.32;1.80;;;15.40;59.20;;;;;;4941388;29;20066;-77
2022/05/08 05:19:14;;;;;;;3.35;1.73;;;15.40;59.20;;;;;;4924827;29;20046;-77
2022/05/08 05:21:39;;;;;;;5.05;1.73;;;15.40;59.20;;;;;;4925052;29;20118;-77
2022/05/08 05:24:05;;;;;;;3.47;1.48;;;15.40;59.20;;;;;;4940484;29;20036;-79
2022/05/08 05:26:31;;;;;;;3.78;1.83;;;15.40;59.20;;;;;;4940473;29;20051;-84
2022/05/08 05:28:57;;;;;;;4.32;1.90;;;15.30;59.20;;;;;;4940082;29;20078;-78
2022/05/08 05:31:24;;;;;;;6.03;1.83;;;15.30;59.20;;;;;;4941216;29;20074;-78
2022/05/08 05:33:50;;;;;;;3.53;1.67;;;15.30;59.30;;;;;;4956702;29;20031;-77
2022/05/08 05:36:16;;;;;;;3.88;1.73;;;15.30;59.30;;;;;;4940863;29;20047;-78
2022/05/08 05:38:41;;;;;;;2.47;1.52;;;15.30;59.30;;;;;;4940206;29;20472;-78
2022/05/08 05:41:07;;;;;;;4.50;2.10;;;15.20;59.30;;;;;;4956387;29;20035;-78
2022/05/08 05:43:34;;;;;;;4.28;1.80;;;15.20;59.30;;;;;;4940257;29;20027;-79
2022/05/08 05:48:44;;;;;;;2.88;1.75;;;15.20;60.00;;;;;;4942401;29;20039;-77
2022/05/08 05:51:10;;;;;;;3.67;1.60;;;15.20;59.30;;;;;;4940284;29;20031;-78
2022/05/08 05:53:37;;;;;;;2.97;1.60;;;15.20;59.40;;;;;;4955795;29;20058;-78
2022/05/08 05:56:03;;;;;;;4.07;1.70;;;15.10;59.40;;;;;;4908553;29;20501;-79
2022/05/08 05:58:29;;;;;;;4.15;1.80;;;15.10;59.40;;;;;;4940144;29;20062;-78
2022/05/08 06:00:55;;;;;;;4.40;1.50;;;15.10;59.40;;;;;;4926631;29;20054;-79
2022/05/08 06:03:21;;;;;;;2.92;1.50;;;15.10;59.40;;;;;;4940414;29;20035;-78
2022/05/08 06:05:47;;;;;;;3.22;1.65;;;15.10;59.40;;;;;;4940617;29;20031;-78
2022/05/08 06:08:12;;;;;;;3.38;1.90;;;15.00;59.40;;;;;;4939996;29;20058;-78
2022/05/08 06:10:38;;;;;;;4.45;1.80;;;15.00;59.40;;;;;;4956686;28;20074;-78
2022/05/08 06:13:04;;;;;;;3.95;1.73;;;15.10;60.10;;;;;;4939617;29;20475;-78
2022/05/08 06:15:30;;;;;;;4.38;1.85;;;15.00;59.40;;;;;;4940124;29;20115;-80
2022/05/08 06:17:55;;;;;;;4.38;1.80;;;15.00;59.40;;;;;;4939407;29;20388;-77
2022/05/08 06:20:21;;;;;;;4.05;1.70;;;15.00;59.50;;;;;;4938971;29;20055;-79
2022/05/08 06:22:47;;;;;;;3.85;1.77;;;15.00;59.50;;;;;;4939846;29;20031;-78
2022/05/08 06:25:13;;;;;;;2.75;1.40;;;15.00;59.50;;;;;;4939306;29;20459;-80
2022/05/08 06:27:39;;;;;;;3.85;1.80;;;15.00;59.50;;;;;;4955751;29;20511;-78
2022/05/08 06:30:06;;;;;;;4.53;1.80;;;15.00;59.50;;;;;;4924501;29;20032;-79
2022/05/08 06:32:34;;;;;;;4.00;2.05;;;15.00;59.50;;;;;;4939352;29;20465;-77
2022/05/08 06:34:59;;;;;;;2.67;1.38;;;15.00;59.50;;;;;;4939161;29;20039;-79
2022/05/08 06:37:25;;;;;;;5.00;1.88;;;15.00;59.50;;;;;;4939518;29;20031;-81
2022/05/08 06:39:51;;;;;;;3.03;1.52;;;15.00;59.50;;;;;;4939161;29;20031;-81
2022/05/08 06:42:17;;;;;;;2.92;1.50;;;15.00;59.50;;;;;;4923926;29;20036;-80
2022/05/08 06:44:46;;;;;;;4.88;2.13;;;15.00;59.50;;;;;;4939521;29;20027;-80
2022/05/08 06:47:12;;;;;;;3.88;1.70;;;15.00;59.50;;;;;;4939427;29;20031;-80
2022/05/08 06:49:38;;;;;;;5.35;1.70;;;15.00;59.50;;;;;;4939674;29;20037;-80
2022/05/08 06:52:04;;;;;;;3.45;1.70;;;15.00;59.50;;;;;;4939268;29;20050;-79
2022/05/08 06:54:30;;;;;;;3.75;1.83;;;15.00;59.50;;;;;;4938859;29;20035;-79
2022/05/08 06:56:56;;;;;;;4.97;1.65;;;15.00;59.50;;;;;;4938728;29;20042;-80
2022/05/08 07:02:20;;;;;;;4.43;1.88;;;15.00;60.20;;;;;;4933021;29;20043;-81
2022/05/08 07:04:45;;;;;;;3.80;1.70;;;15.00;59.50;;;;;;4938533;29;20093;-80
2022/05/08 07:07:13;;;;;;;5.22;1.75;;;15.00;59.50;;;;;;4938419;29;20065;-78
2022/05/08 07:09:41;;;;;;;3.15;1.55;;;15.00;59.50;;;;;;4909406;29;20032;-80
2022/05/08 07:12:09;;;;;;;2.35;1.40;;;15.00;59.50;;;;;;4923048;29;20036;-78
2022/05/08 07:14:35;;;;;;;3.22;1.42;;;15.00;59.50;;;;;;4906890;29;20443;-78
2022/05/08 07:17:00;;;;;;;4.15;1.80;;;15.00;59.50;;;;;;4938618;29;20039;-77
2022/05/08 07:19:27;;;;;;;3.20;1.83;;;15.00;59.50;;;;;;4955559;28;20035;-76
2022/05/08 07:21:53;;;;;;;5.07;2.58;;;15.00;59.50;;;;;;4922878;29;20392;-76
2022/05/08 07:24:18;;;;;;;4.80;2.53;;;15.00;59.50;;;;;;4922979;29;20094;-81
2022/05/08 07:26:45;;;;;;;6.10;2.70;;;15.00;59.50;;;;;;4938373;29;20627;-78
2022/05/08 07:29:11;;;;;;;5.97;3.20;;;15.00;59.50;;;;;;4938361;29;20059;-81
2022/05/08 07:31:38;;;;;;;6.57;2.70;;;15.00;59.50;;;;;;4938576;29;20094;-81
2022/05/08 07:36:50;;;;;;;4.95;2.25;;;15.00;59.50;;;;;;4947172;28;20055;-84
2022/05/08 07:39:16;;;;;;;5.75;2.50;;;15.00;59.50;;;;;;4955072;29;20024;-83
2022/05/08 07:41:41;;;;;;;5.57;2.30;;;15.00;59.50;;;;;;4938673;29;20039;-83
2022/05/08 07:44:07;;;;;;;3.40;1.88;;;15.00;59.50;;;;;;4937635;29;20023;-83
2022/05/08 07:46:33;;;;;;;4.40;2.10;;;15.00;59.50;;;;;;4953834;29;20038;-84
2022/05/08 07:48:59;;;;;;;4.00;2.05;;;15.00;59.50;;;;;;4923133;29;20368;-82
2022/05/08 07:51:24;;;;;;;4.38;1.92;;;15.10;59.60;;;;;;4954082;29;20445;-83
2022/05/08 07:53:50;;;;;;;4.57;2.00;;;15.10;59.50;;;;;;4922552;29;20031;-81
2022/05/08 07:56:16;;;;;;;5.95;2.30;;;15.10;59.50;;;;;;4922338;29;20122;-80
2022/05/08 07:58:42;;;;;;;3.97;2.10;;;15.10;59.40;;;;;;4954661;29;20444;-82
2022/05/08 08:01:08;;;;;;;3.95;1.80;;;15.20;59.40;;;;;;4938090;29;20470;-80
2022/05/08 08:03:33;;;;;;;3.92;2.25;;;15.20;59.30;;;;;;4922132;29;20498;-80
2022/05/08 08:06:01;;;;;;;4.80;1.90;;;15.20;59.30;;;;;;4955415;28;20067;-84
2022/05/08 08:08:27;;;;;;;5.20;1.80;;;15.30;59.30;;;;;;4955251;28;20097;-81
2022/05/08 08:10:56;;;;;;;2.80;1.65;;;15.30;59.20;;;;;;4938118;29;20484;-82
2022/05/08 08:13:29;;;;;;;3.28;1.70;;;15.40;59.20;;;;;;4939100;29;20028;-82
2022/05/08 08:15:57;;;;;;;4.63;1.75;;;15.40;59.10;;;;;;4955384;28;20039;-83
2022/05/08 08:18:23;;;;;;;3.28;1.67;;;15.50;59.10;;;;;;4938351;29;20079;-80
2022/05/08 08:20:49;;;;;;;4.00;2.08;;;15.50;59.00;;;;;;4937853;29;20117;-80
2022/05/08 08:23:15;;;;;;;3.22;1.70;;;15.60;59.00;;;;;;4953767;29;20042;-80
2022/05/08 08:25:43;;;;;;;2.80;1.67;;;15.60;58.90;;;;;;4954870;29;20047;-81
2022/05/08 08:28:09;;;;;;;4.00;1.63;;;15.70;58.90;;;;;;4937389;29;20058;-81
2022/05/08 08:30:35;;;;;;;3.75;1.50;;;15.70;58.90;;;;;;4938130;29;20039;-80
2022/05/08 08:33:00;;;;;;;2.88;1.52;;;15.80;58.90;;;;;;4953727;29;20530;-78
2022/05/08 08:35:30;;;;;;;3.75;1.60;;;15.90;58.80;;;;;;4954097;29;20051;-79
2022/05/08 08:37:56;;;;;;;4.10;1.67;;;15.90;58.70;;;;;;4953532;29;20029;-78
2022/05/08 08:40:23;;;;;;;4.30;1.60;;;16.00;58.80;;;;;;4953748;29;20074;-83
2022/05/08 08:42:50;;;;;;;4.25;1.90;;;16.00;58.70;;;;;;4937883;29;20062;-81
2022/05/08 08:48:12;;;;;;;2.72;2.10;;;16.20;58.70;;;;;;4957539;29;20032;-80
2022/05/08 08:50:38;;;;;;;3.42;1.60;;;16.30;58.70;;;;;;4957600;29;20034;-79
2022/05/08 08:53:05;;;;;;;3.70;1.60;;;16.30;58.60;;;;;;4926045;29;20023;-80
2022/05/08 08:55:32;;;;;;;3.05;1.58;;;16.40;58.60;;;;;;4925393;29;20483;-78
2022/05/08 08:57:58;;;;;;;2.30;1.25;;;16.50;58.60;;;;;;4941289;29;20039;-81
2022/05/08 09:00:24;;;;;;;3.65;1.58;;;16.50;58.50;;;;;;4941054;29;20119;-77
2022/05/08 09:02:53;;;;;;;3.05;1.60;;;16.60;58.40;;;;;;4941061;29;20028;-78
2022/05/08 09:05:19;;;;;;;3.25;1.52;;;16.70;58.30;;;;;;4957386;29;20109;-77
2022/05/08 09:07:48;;;;;;;3.65;1.65;;;16.70;58.20;;;;;;4941696;29;20476;-77
2022/05/08 09:10:19;;;;;;;2.03;1.38;;;16.80;58.20;;;;;;4940773;29;20035;-77
2022/05/08 09:13:05;;;;;;;3.10;1.40;;;16.90;58.10;;;;;;4956990;29;20038;-78
2022/05/08 09:15:35;;;;;;;4.30;1.50;;;17.00;58.10;;;;;;4956379;29;20039;-79
2022/05/08 09:18:04;;;;;;;2.97;1.50;;;17.10;57.90;;;;;;4940628;29;20495;-82
2022/05/08 09:20:41;;;;;;;3.45;1.58;;;17.10;57.90;;;;;;4956352;29;20039;-77
2022/05/08 09:23:17;;;;;;;2.28;1.35;;;17.30;57.90;;;;;;4957415;28;20023;-80
2022/05/08 09:25:59;;;;;;;1.70;1.30;;;17.30;57.80;;;;;;4940340;29;20042;-79
2022/05/08 09:28:27;;;;;;;2.95;1.60;;;17.40;57.80;;;;;;4952375;29;20058;-79
2022/05/08 09:31:11;;;;;;;2.58;1.40;;;17.50;57.70;;;;;;4956362;29;20051;-77
2022/05/08 09:33:42;;;;;;;2.72;1.58;;;17.60;57.70;;;;;;4956943;29;20443;-78
2022/05/08 09:36:10;;;;;;;2.22;1.40;;;17.70;57.50;;;;;;4957499;28;20042;-83
2022/05/08 09:38:45;;;;;;;3.50;1.55;;;17.70;57.40;;;;;;4957932;29;20047;-78
2022/05/08 09:41:13;;;;;;;3.08;1.50;;;17.80;57.40;;;;;;4955981;29;20031;-79
2022/05/08 09:43:40;;;;;;;2.20;1.45;;;17.90;57.40;;;;;;4939962;29;20032;-77
2022/05/08 09:46:06;;;;;;;2.90;1.58;;;18.00;57.30;;;;;;4940315;29;20130;-83
2022/05/08 09:48:34;;;;;;;2.05;1.45;;;18.10;57.30;;;;;;4940119;29;20023;-76
2022/05/08 09:51:08;;;;;;;2.30;1.30;;;18.20;57.90;;;;;;4957107;28;20045;-79
2022/05/08 09:53:35;;;;;;;3.37;1.50;;;18.20;57.20;;;;;;4956573;29;20070;-80
2022/05/08 09:56:04;;;;;;;3.30;1.30;;;18.40;57.20;;;;;;4908417;29;20687;-78
2022/05/08 09:58:31;;;;;;;4.03;1.65;;;18.50;57.20;;;;;;4956750;28;20042;-78
2022/05/08 10:00:58;;;;;;;2.25;1.40;;;18.50;57.10;;;;;;4940012;29;20471;-78
2022/05/08 10:03:25;;;;;;;1.80;1.27;;;18.60;57.00;;;;;;4955821;29;20535;-77
2022/05/08 10:05:53;;;;;;;3.05;1.48;;;18.70;57.00;;;;;;4957132;28;20376;-76
2022/05/08 10:08:22;;;;;;;2.72;1.45;;;18.80;57.00;;;;;;4939449;29;20035;-78
2022/05/08 10:13:54;;;;;;;1.88;1.30;;;18.90;56.80;;;;;;4956669;28;20114;-77
2022/05/08 10:16:52;;;;;;;2.00;1.30;;;19.10;56.80;;;;;;4956473;28;20039;-78
2022/05/08 10:19:18;;;;;;;2.42;1.40;;;19.20;56.90;;;;;;4939741;29;20032;-76
2022/05/08 10:22:00;;;;;;;2.47;1.30;;;19.20;56.70;;;;;;4956136;28;20535;-77
2022/05/08 10:24:28;;;;;;;2.35;1.33;;;19.30;56.70;;;;;;4955447;29;20043;-76
2022/05/08 10:27:17;;;;;;;1.40;1.10;;;19.40;56.60;;;;;;4954745;29;20516;-76
2022/05/08 10:29:52;;;;;;;3.30;1.40;;;19.50;56.60;;;;;;4955960;29;20114;-75
2022/05/08 10:32:31;;;;;;;2.97;1.40;;;19.60;56.50;;;;;;4954879;29;20495;-76
2022/05/08 10:35:17;;;;;;;1.67;1.27;;;19.70;56.50;;;;;;4939653;29;20186;-76
2022/05/08 10:37:50;;;;;;;2.28;1.40;;;19.80;56.40;;;;;;4955074;29;20035;-77
2022/05/08 10:40:22;;;;;;;2.35;1.20;;;19.80;56.20;;;;;;4954984;29;20039;-77
2022/05/08 10:42:54;;;;;;;1.80;1.27;;;19.90;56.10;;;;;;4955600;29;20031;-78
2022/05/08 10:45:37;;;;;;;3.17;1.50;;;20.00;56.00;;;;;;4955121;29;20031;-77
2022/05/08 10:48:09;;;;;;;2.95;1.50;;;20.10;56.00;;;;;;4955543;29;20083;-78
2022/05/08 10:50:42;;;;;;;3.08;1.55;;;20.20;55.90;;;;;;4956359;28;20078;-77
2022/05/08 10:53:29;;;;;;;3.60;1.70;;;20.30;55.80;;;;;;4955366;29;20373;-76
2022/05/08 10:56:10;;;;;;;1.85;1.42;;;20.40;55.80;;;;;;4955777;29;20058;-78
2022/05/08 10:58:39;;;;;;;3.28;1.58;;;20.50;55.70;;;;;;4938658;29;20027;-78
2022/05/08 11:01:09;;;;;;;3.88;1.60;;;20.60;55.50;;;;;;4956481;28;20448;-78
2022/05/08 11:03:38;;;;;;;3.03;1.50;;;20.60;55.40;;;;;;4938830;29;20130;-80
2022/05/08 11:06:05;;;;;;;2.45;1.40;;;20.70;55.30;;;;;;4955247;28;20038;-77
2022/05/08 11:08:32;;;;;;;3.28;1.63;;;20.80;55.30;;;;;;4954249;29;20038;-78
2022/05/08 11:11:09;;;;;;;1.80;1.30;;;20.90;55.30;;;;;;4938393;29;20058;-79
2022/05/08 11:13:46;;;;;;;3.00;1.50;;;20.90;55.20;;;;;;4938508;29;20036;-78
2022/05/08 11:16:23;;;;;;;2.78;1.50;;;21.00;55.10;;;;;;4954405;29;20623;-77
2022/05/08 11:18:49;;;;;;;2.05;1.30;;;21.10;55.10;;;;;;4955835;28;20046;-78
2022/05/08 11:21:15;;;;;;;2.47;1.50;;;21.20;55.00;;;;;;4938133;29;20035;-78
2022/05/08 11:23:42;;;;;;;2.65;1.40;;;21.20;55.00;;;;;;4955345;29;20090;-78
2022/05/08 11:26:09;;;;;;;2.78;1.70;;;21.20;55.00;;;;;;4955306;28;20128;-79
2022/05/08 11:28:45;;;;;;;1.95;1.52;;;21.30;55.00;;;;;;4938102;29;20118;-77
2022/05/08 11:31:15;;;;;;;3.15;1.70;;;21.30;54.90;;;;;;4954377;29;20042;-78
2022/05/08 11:36:37;;;;;;;3.60;1.30;;;21.40;55.00;;;;;;4955323;29;20027;-77
2022/05/08 11:39:15;;;;;;;2.83;1.35;;;21.50;55.00;;;;;;4938010;29;20109;-76
2022/05/08 11:41:51;;;;;;;1.67;1.30;;;21.50;55.00;;;;;;4953763;29;20035;-78
2022/05/08 11:44:25;;;;;;;2.92;1.40;;;21.50;55.10;;;;;;4954376;29;20036;-76
2022/05/08 11:46:56;;;;;;;2.25;1.30;;;21.60;55.00;;;;;;4953570;29;20472;-76
2022/05/08 11:49:29;;;;;;;3.08;1.55;;;21.60;55.00;;;;;;4953455;29;20023;-77
2022/05/08 11:51:57;;;;;;;2.42;1.50;;;21.60;55.10;;;;;;4937766;29;20028;-76
2022/05/08 11:54:33;;;;;;;2.05;1.30;;;21.70;55.10;;;;;;4955166;28;20043;-76
2022/05/08 11:57:20;;;;;;;2.03;1.35;;;21.70;55.10;;;;;;4938136;29;20044;-74
2022/05/08 12:00:03;;;;;;;2.22;1.50;;;21.70;55.00;;;;;;4937521;29;20110;-78
2022/05/08 12:02:44;;;;;;;3.00;1.48;;;21.80;54.90;;;;;;4954407;29;20035;-75
2022/05/08 12:05:19;;;;;;;2.25;1.38;;;21.80;54.70;;;;;;4954198;29;20126;-75
2022/05/08 12:07:45;;;;;;;2.35;1.30;;;21.80;54.50;;;;;;4953272;29;20468;-75
2022/05/08 12:10:12;;;;;;;3.13;1.27;;;21.80;54.40;;;;;;4954640;29;20031;-75
2022/05/08 12:12:39;;;;;;;1.63;1.35;;;21.90;54.40;;;;;;4953339;29;20132;-75
2022/05/08 12:15:08;;;;;;;3.72;1.55;;;21.80;54.40;;;;;;4954179;28;20027;-77
2022/05/08 12:17:40;;;;;;;2.05;1.20;;;21.90;54.40;;;;;;4953507;28;20060;-75
2022/05/08 12:20:11;;;;;;;3.20;1.42;;;21.90;54.50;;;;;;4956894;29;20610;-76
2022/05/08 12:22:37;;;;;;;2.97;1.40;;;21.90;54.40;;;;;;4958653;28;20031;-75
2022/05/08 12:25:06;;;;;;;2.42;1.42;;;21.90;54.40;;;;;;4940978;29;20118;-75
2022/05/08 12:27:33;;;;;;;2.22;1.30;;;22.00;54.40;;;;;;4956353;29;20067;-76
2022/05/08 12:29:59;;;;;;;2.22;1.38;;;22.00;54.40;;;;;;4941284;29;20050;-78
2022/05/08 12:32:26;;;;;;;3.55;1.40;;;22.00;54.30;;;;;;4956941;29;20055;-78
2022/05/08 12:34:59;;;;;;;2.95;1.45;;;22.00;53.50;;;;;;4957188;29;20361;-78
2022/05/08 12:37:25;;;;;;;3.50;1.60;;;21.90;52.10;;;;;;4956996;29;20039;-79
2022/05/08 12:39:51;;;;;;;3.22;1.85;;;21.90;51.20;;;;;;4941153;29;20050;-76
2022/05/08 12:42:16;;;;;;;3.63;1.70;;;21.80;50.50;;;;;;4958290;28;20437;-76
2022/05/08 12:44:45;;;;;;;4.07;2.08;;;21.80;50.20;;;;;;4940662;29;20164;-77
2022/05/08 12:47:13;;;;;;;4.40;2.03;;;21.70;49.80;;;;;;4957867;28;20041;-77
2022/05/08 12:49:40;;;;;;;4.22;2.25;;;21.70;49.40;;;;;;4940307;29;20027;-78
2022/05/08 12:52:08;;;;;;;7.10;3.42;;;21.70;49.10;;;;;;4940742;29;20032;-77
2022/05/08 12:54:34;;;;;;;7.75;4.43;;;21.70;48.70;;;;;;4959660;29;20034;-77
2022/05/08 12:57:01;;;;;;;7.50;5.43;;;21.70;48.20;;;;;;4961644;29;20040;-80
2022/05/08 13:02:13;;;;;;;8.33;5.07;;;21.60;47.50;;;;;;4957142;29;20038;-77
2022/05/08 13:04:40;;;;;;;12.02;7.85;;;21.60;47.30;;;;;;4941001;29;20024;-79
2022/05/08 13:07:07;;;;;;;14.02;8.25;;;21.60;47.20;;;;;;4956671;29;20031;-77
2022/05/08 13:09:33;;;;;;;11.68;6.95;;;21.50;47.10;;;;;;4940745;29;20038;-77
2022/05/08 13:12:00;;;;;;;7.93;4.30;;;21.50;46.70;;;;;;4956495;29;20058;-78
2022/05/08 13:14:26;;;;;;;7.68;3.72;;;21.50;46.60;;;;;;4956949;29;20023;-78
2022/05/08 13:16:52;;;;;;;4.07;2.33;;;21.50;46.40;;;;;;4924708;29;20054;-77